createdAt,value
2023-04-06T00:02:03.173Z,6.00
2023-04-06T00:06:02.518Z,5.10
2023-04-06T00:10:03.531Z,9.20
2023-04-06T00:14:11.502Z,6.00
2023-04-06T00:18:11.135Z,9.50
2023-04-06T00:22:12.212Z,9.40
2023-04-06T00:26:12.982Z,6.20
2023-04-06T00:30:21.256Z,7.20
2023-04-06T00:34:15.665Z,4.80
2023-04-06T00:38:18.088Z,8.90
2023-04-06T00:42:20.939Z,8.00
2023-04-06T00:46:21.005Z,5.90
2023-04-06T00:50:25.984Z,6.20
2023-04-06T00:54:25.884Z,7.40
2023-04-06T00:58:29.467Z,7.00
2023-04-06T01:02:39.155Z,6.00
2023-04-06T01:06:42.518Z,7.10
2023-04-06T01:10:42.819Z,6.40
2023-04-06T01:14:50.808Z,6.00
2023-04-06T01:18:51.084Z,8.20
2023-04-06T01:23:04.095Z,7.90
2023-04-06T01:27:05.154Z,7.90
2023-04-06T01:31:18.695Z,9.00
2023-04-06T01:35:22.098Z,8.10
2023-04-06T01:39:44.021Z,12.10
2023-04-06T01:43:47.977Z,8.60
2023-04-06T01:47:51.622Z,5.80
2023-04-06T01:51:54.021Z,6.30
2023-04-06T01:55:57.116Z,7.30
2023-04-06T02:00:01.097Z,9.00
2023-04-06T02:04:16.303Z,8.00
2023-04-06T02:08:17.310Z,7.00
2023-04-06T02:12:20.485Z,7.70
2023-04-06T02:16:24.160Z,5.80
2023-04-06T02:20:27.302Z,4.60
2023-04-06T02:24:27.137Z,5.90
2023-04-06T02:28:30.142Z,12.30
2023-04-06T02:32:30.122Z,8.20
2023-04-06T02:36:33.184Z,5.00
2023-04-06T02:40:32.987Z,8.60
2023-04-06T02:44:41.650Z,8.90
2023-04-06T02:48:42.271Z,6.60
2023-04-06T02:52:46.801Z,8.20
2023-04-06T02:56:47.169Z,7.50
2023-04-06T03:00:50.794Z,6.80
2023-04-06T03:04:50.067Z,7.80
2023-04-06T03:08:57.602Z,9.30
2023-04-06T03:12:58.061Z,13.40
2023-04-06T03:17:26.974Z,9.50
2023-04-06T03:21:28.195Z,8.50
2023-04-06T03:25:34.296Z,9.10
2023-04-06T03:29:36.104Z,12.40
2023-04-06T03:33:39.763Z,10.90
2023-04-06T03:41:26.487Z,8.90
2023-04-06T03:45:44.258Z,7.80
2023-04-06T03:49:44.220Z,10.70
2023-04-06T03:53:47.813Z,9.20
2023-04-06T03:57:47.193Z,7.50
2023-04-06T04:01:50.910Z,7.00
2023-04-06T04:05:50.272Z,10.00
2023-04-06T04:09:55.004Z,11.20
2023-04-06T04:17:38.295Z,9.20
2023-04-06T04:21:42.204Z,9.30
2023-04-06T04:25:43.347Z,7.40
2023-04-06T04:29:45.817Z,7.80
2023-04-06T04:33:45.381Z,10.20
2023-04-06T04:37:54.401Z,9.00
2023-04-06T04:41:58.902Z,10.60
2023-04-06T04:46:01.011Z,12.20
2023-04-06T04:50:11.208Z,8.80
2023-04-06T04:54:11.470Z,15.80
2023-04-06T04:58:18.070Z,11.30
2023-04-06T05:02:24.586Z,13.30
2023-04-06T05:07:10.478Z,16.50
2023-04-06T05:11:15.561Z,14.90
2023-04-06T05:15:22.998Z,14.30
2023-04-06T05:19:29.703Z,16.20
2023-04-06T05:23:32.149Z,14.50
2023-04-06T05:27:33.545Z,17.00
2023-04-06T05:31:41.308Z,16.00
2023-04-06T05:35:42.540Z,17.00
2023-04-06T05:39:45.489Z,17.80
2023-04-06T05:43:46.548Z,14.70
2023-04-06T05:47:47.759Z,13.90
2023-04-06T05:51:57.516Z,16.30
2023-04-06T05:56:01.020Z,20.60
2023-04-06T05:59:57.926Z,12.50
2023-04-06T06:04:06.413Z,15.70
2023-04-06T06:08:07.636Z,17.20
2023-04-06T06:12:15.961Z,14.00
2023-04-06T06:16:14.699Z,14.80
2023-04-06T06:24:05.433Z,22.40
2023-04-06T06:28:05.545Z,21.00
2023-04-06T06:32:11.545Z,17.80
2023-04-06T06:36:11.557Z,18.30
2023-04-06T06:40:17.583Z,23.90
2023-04-06T06:44:17.656Z,20.90
2023-04-06T06:48:20.444Z,21.70
2023-04-06T06:52:19.530Z,20.80
2023-04-06T06:56:22.291Z,19.40
2023-04-06T07:00:25.709Z,23.60
2023-04-06T07:04:29.993Z,19.70
2023-04-06T07:08:29.595Z,22.10
2023-04-06T07:12:35.958Z,22.80
2023-04-06T07:16:37.694Z,23.30
2023-04-06T07:20:41.364Z,19.20
2023-04-06T07:24:41.606Z,22.60
2023-04-06T07:28:45.298Z,26.20
2023-04-06T07:32:45.742Z,18.70
2023-04-06T07:36:48.715Z,16.80
2023-04-06T07:40:48.664Z,16.70
2023-04-06T07:44:53.713Z,17.40
2023-04-06T07:48:52.691Z,16.80
2023-04-06T07:52:55.702Z,17.20
2023-04-06T07:56:55.680Z,14.70
2023-04-06T08:00:58.622Z,15.30
2023-04-06T08:04:57.835Z,15.50
2023-04-06T08:09:01.175Z,12.90
2023-04-06T08:13:00.742Z,13.70
2023-04-06T08:17:05.195Z,11.40
2023-04-06T08:21:06.859Z,12.40
2023-04-06T08:25:09.257Z,13.90
2023-04-06T08:29:09.856Z,15.00
2023-04-06T08:33:12.195Z,15.30
2023-04-06T08:37:14.804Z,15.00
2023-04-06T08:41:15.212Z,13.60
2023-04-06T08:45:13.946Z,24.80
2023-04-06T08:49:14.276Z,14.90
2023-04-06T08:53:11.077Z,12.00
2023-04-06T08:57:09.728Z,11.80
2023-04-06T09:01:06.754Z,10.20
2023-04-06T09:05:11.858Z,10.60
2023-04-06T09:09:08.825Z,9.90
2023-04-06T09:13:09.406Z,8.10
2023-04-06T09:17:07.858Z,9.30
2023-04-06T09:21:08.761Z,7.80
2023-04-06T09:25:07.180Z,10.10
2023-04-06T09:29:09.135Z,9.60
2023-04-06T09:33:05.969Z,9.20
2023-04-06T09:37:07.000Z,9.20
2023-04-06T09:41:03.910Z,13.90
2023-04-06T09:45:04.456Z,11.20
2023-04-06T09:49:01.902Z,12.10
2023-04-06T09:53:02.263Z,7.70
2023-04-06T09:56:59.130Z,11.10
2023-04-06T10:01:06.958Z,8.80
2023-04-06T10:05:08.129Z,8.60
2023-04-06T10:09:14.162Z,9.40
2023-04-06T10:13:13.396Z,11.50
2023-04-06T10:17:16.772Z,7.70
2023-04-06T10:21:15.785Z,9.40
2023-04-06T10:25:17.813Z,11.00
2023-04-06T10:29:15.139Z,10.80
2023-04-06T10:33:15.555Z,10.40
2023-04-06T10:37:12.064Z,7.40
2023-04-06T10:41:12.465Z,8.70
2023-04-06T10:45:09.948Z,9.40
2023-04-06T10:49:11.866Z,6.80
2023-04-06T10:53:08.378Z,7.80
2023-04-06T10:57:08.843Z,8.10
2023-04-06T11:01:02.913Z,9.20
2023-04-06T11:05:04.871Z,11.10
2023-04-06T11:09:02.901Z,8.30
2023-04-06T11:13:03.070Z,11.70
2023-04-06T11:16:59.114Z,7.90
2023-04-06T11:21:00.117Z,8.10
2023-04-06T11:24:57.243Z,9.90
2023-04-06T11:28:59.593Z,9.50
2023-04-06T11:32:56.250Z,8.80
2023-04-06T11:36:54.302Z,8.10
2023-04-06T11:40:51.311Z,8.70
2023-04-06T11:44:52.586Z,5.70
2023-04-06T11:48:51.289Z,6.60
2023-04-06T11:52:52.189Z,7.00
2023-04-06T11:56:48.994Z,10.30
2023-04-06T12:00:50.119Z,10.50
2023-04-06T12:04:44.622Z,7.30
2023-04-06T12:08:46.198Z,9.20
2023-04-06T12:12:44.241Z,9.60
2023-04-06T12:16:47.189Z,5.40
2023-04-06T12:20:45.289Z,5.90
2023-04-06T12:24:45.646Z,5.10
2023-04-06T12:28:44.627Z,4.70
2023-04-06T12:32:43.194Z,5.60
2023-04-06T12:36:42.273Z,5.20
2023-04-06T12:40:49.545Z,5.90
2023-04-06T12:44:45.917Z,5.20
2023-04-06T12:48:45.075Z,5.00
2023-04-06T12:52:44.576Z,5.90
2023-04-06T12:56:49.516Z,5.60
2023-04-06T13:00:49.364Z,5.00
2023-04-06T13:04:53.617Z,14.80
2023-04-06T13:08:52.431Z,4.80
2023-04-06T13:12:55.132Z,5.90
2023-04-06T13:16:55.393Z,5.90
2023-04-06T13:20:53.836Z,4.10
2023-04-06T13:24:48.708Z,3.70
2023-04-06T13:28:53.963Z,3.70
2023-04-06T13:32:54.368Z,3.80
2023-04-06T13:36:54.957Z,3.30
2023-04-06T13:41:00.378Z,2.40
2023-04-06T13:45:02.956Z,3.70
2023-04-06T13:48:57.435Z,3.20
2023-04-06T13:52:58.320Z,2.70
2023-04-06T13:57:02.491Z,2.40
2023-04-06T14:01:06.092Z,4.00
2023-04-06T14:05:08.425Z,2.30
2023-04-06T14:09:12.253Z,2.30
2023-04-06T14:13:11.495Z,3.10
2023-04-06T14:17:13.416Z,3.50
2023-04-06T14:21:07.899Z,3.20
2023-04-06T14:25:02.662Z,2.30
2023-04-06T14:29:08.007Z,2.50
2023-04-06T14:33:07.232Z,3.30
2023-04-06T14:37:09.430Z,3.90
2023-04-06T14:41:08.322Z,4.50
2023-04-06T14:45:11.315Z,3.60
2023-04-06T14:49:10.023Z,2.00
2023-04-06T14:53:07.975Z,1.40
2023-04-06T14:57:08.949Z,1.60
2023-04-06T15:01:11.963Z,2.20
2023-04-06T15:05:11.241Z,2.20
2023-04-06T15:09:16.063Z,2.90
2023-04-06T15:13:15.355Z,7.70
2023-04-06T15:17:18.118Z,3.70
2023-04-06T15:24:51.429Z,15.70
2023-04-06T15:28:55.889Z,27.00
2023-04-06T15:32:55.533Z,13.00
2023-04-06T15:37:00.588Z,20.30
2023-04-06T15:41:03.517Z,21.20
2023-04-06T15:45:02.333Z,21.00
2023-04-06T15:49:06.008Z,21.40
2023-04-06T15:53:06.490Z,20.80
2023-04-06T15:57:11.162Z,22.00
2023-04-06T16:01:13.576Z,35.20
2023-04-06T16:05:18.461Z,29.30
2023-04-06T16:09:20.716Z,16.60
2023-04-06T16:13:24.337Z,75.50
2023-04-06T16:17:24.891Z,65.80
2023-04-06T16:21:24.158Z,29.90
2023-04-06T16:25:25.045Z,60.80
2023-04-06T16:29:28.077Z,57.20
2023-04-06T16:33:31.936Z,34.00
2023-04-06T16:37:40.752Z,40.00
2023-04-06T16:41:41.752Z,35.80
2023-04-06T16:45:40.707Z,36.50
2023-04-06T16:49:42.943Z,32.90
2023-04-06T16:53:39.488Z,39.20
2023-04-06T16:57:47.606Z,26.20
2023-04-06T17:01:44.715Z,38.40
2023-04-06T17:05:47.137Z,27.50
2023-04-06T17:09:44.760Z,27.30
2023-04-06T17:13:49.172Z,12.60
2023-04-06T17:17:43.597Z,37.00
2023-04-06T17:21:44.037Z,67.20
2023-04-06T17:25:40.706Z,37.60
2023-04-06T17:29:41.612Z,22.50
2023-04-06T17:33:40.696Z,14.30
2023-04-06T17:37:41.772Z,25.90
2023-04-06T17:41:39.658Z,16.10
2023-04-06T17:45:40.768Z,46.00
2023-04-06T17:49:37.796Z,32.50
2023-04-06T17:53:40.581Z,33.20
2023-04-06T17:57:41.073Z,13.60
2023-04-06T18:01:45.786Z,18.90
2023-04-06T18:05:40.466Z,8.00
2023-04-06T18:09:41.539Z,22.20
2023-04-06T18:13:40.088Z,19.10
2023-04-06T18:17:46.153Z,8.70
2023-04-06T18:21:43.059Z,12.50
2023-04-06T18:25:41.712Z,22.50
2023-04-06T18:29:39.152Z,20.80
2023-04-06T18:33:40.084Z,30.10
2023-04-06T18:37:36.885Z,32.90
2023-04-06T18:41:37.707Z,34.20
2023-04-06T18:45:35.090Z,14.10
2023-04-06T18:49:36.375Z,26.10
2023-04-06T18:53:31.009Z,31.30
2023-04-06T18:57:34.655Z,27.20
2023-04-06T19:01:31.932Z,31.00
2023-04-06T19:05:33.421Z,25.90
2023-04-06T19:09:30.858Z,35.60
2023-04-06T19:13:31.568Z,27.70
2023-04-06T19:17:31.954Z,27.30
2023-04-06T19:21:32.297Z,24.50
2023-04-06T19:25:28.889Z,21.10
2023-04-06T19:29:30.805Z,12.80
2023-04-06T19:33:28.104Z,20.20
2023-04-06T19:37:28.081Z,11.30
2023-04-06T19:41:24.949Z,15.20
2023-04-06T19:45:25.830Z,15.00
2023-04-06T19:49:27.475Z,9.10
2023-04-06T19:53:28.106Z,5.20
2023-04-06T19:57:25.020Z,7.30
2023-04-06T20:01:25.961Z,6.30
2023-04-06T20:05:23.197Z,8.30
2023-04-06T20:09:22.644Z,10.90
2023-04-06T20:13:19.208Z,8.60
2023-04-06T20:17:19.255Z,6.00
2023-04-06T20:21:15.858Z,3.80
2023-04-06T20:25:16.556Z,6.00
2023-04-06T20:29:13.470Z,11.60
2023-04-06T20:33:19.977Z,5.60
2023-04-06T20:37:25.013Z,9.50
2023-04-06T20:41:27.969Z,8.80
2023-04-06T20:45:29.966Z,11.20
2023-04-06T20:49:33.016Z,9.80
2023-04-06T20:53:32.031Z,22.60
2023-04-06T20:57:36.151Z,17.50
2023-04-06T21:01:34.976Z,18.70
2023-04-06T21:05:37.906Z,3.20
2023-04-06T21:09:38.091Z,7.10
2023-04-06T21:13:40.827Z,7.10
2023-04-06T21:17:46.085Z,3.50
2023-04-06T21:21:50.113Z,6.20
2023-04-06T21:25:50.126Z,11.10
2023-04-06T21:29:39.529Z,9.10
2023-04-06T21:33:25.943Z,17.80
2023-04-06T21:37:14.592Z,5.80
2023-04-06T21:41:01.740Z,5.80
2023-04-06T21:44:48.791Z,5.90
2023-04-06T21:48:36.835Z,6.10
2023-04-06T21:52:23.918Z,2.60
2023-04-06T21:56:11.704Z,2.70
2023-04-06T21:59:59.768Z,3.90
2023-04-06T22:03:46.623Z,2.40
2023-04-06T22:07:34.381Z,2.70
2023-04-06T22:11:22.239Z,4.90
2023-04-06T22:15:08.947Z,4.30
2023-04-06T22:18:56.376Z,3.90
2023-04-06T22:22:43.843Z,4.10
2023-04-06T22:26:32.940Z,3.30
2023-04-06T22:30:20.872Z,2.30
2023-04-06T22:34:09.826Z,2.40
2023-04-06T22:37:57.834Z,2.10
2023-04-06T22:41:44.281Z,1.90
2023-04-06T22:45:32.778Z,3.80
2023-04-06T22:49:19.653Z,2.70
2023-04-06T22:53:05.798Z,1.80
2023-04-06T22:56:54.746Z,2.90
2023-04-06T23:00:40.768Z,2.50
2023-04-06T23:04:30.174Z,2.10
2023-04-06T23:08:16.456Z,2.40
2023-04-06T23:12:09.436Z,3.40
2023-04-06T23:15:58.040Z,2.20
2023-04-06T23:19:45.619Z,2.30
2023-04-06T23:23:33.762Z,2.40
2023-04-06T23:27:21.522Z,1.70
2023-04-06T23:31:10.345Z,2.30
2023-04-06T23:35:00.646Z,2.30
2023-04-06T23:38:48.140Z,3.90
2023-04-06T23:42:34.555Z,1.90
2023-04-06T23:46:22.517Z,3.10
2023-04-06T23:50:11.150Z,2.50
2023-04-06T23:53:57.472Z,1.70
2023-04-06T23:57:45.953Z,2.50
